Time;durP1;ratioP1;P1;durP2;ratioP2;P2;SDS_P1;SDS_P2;PMS_P1;PMS_P2;Temp;Humidity;BMP_temperature;BMP_pressure;BME280_temperature;BME280_humidity;BME280_pressure;Samples;Min_cycle;Max_cycle;Signal;HPM_P1;HPM_P2
2023/02/12 00:01:03;;;;;;;28.15;11.00;;;;;;;-4.97;60.47;97271.66;5053895;28;20522;-60
2023/02/12 00:03:31;;;;;;;29.38;10.02;;;;;;;-4.92;59.80;97261.56;5053839;28;20175;-63
2023/02/12 00:06:02;;;;;;;17.65;9.02;;;;;;;-4.95;59.55;97260.69;5054228;28;20084;-63
2023/02/12 00:08:30;;;;;;;15.00;7.57;;;;;;;-4.91;59.47;97258.22;5053700;28;20551;-61
2023/02/12 00:10:58;;;;;;;19.08;9.45;;;;;;;-4.82;59.48;97255.97;5053951;28;20073;-62
2023/02/12 00:13:25;;;;;;;20.20;8.15;;;;;;;-4.76;59.42;97253.63;5053535;28;20071;-62
2023/02/12 00:15:52;;;;;;;13.82;7.82;;;;;;;-4.68;59.93;97251.34;5053598;28;20398;-64
2023/02/12 00:18:19;;;;;;;14.75;7.40;;;;;;;-4.65;60.11;97250.56;5053670;28;20044;-61
2023/02/12 00:20:46;;;;;;;15.07;7.93;;;;;;;-4.59;59.86;97249.09;5053530;28;20076;-62
2023/02/12 00:23:15;;;;;;;28.30;14.52;;;;;;;-4.52;59.53;97241.66;5053521;28;20139;-63
2023/02/12 00:25:42;;;;;;;38.45;17.08;;;;;;;-4.48;58.46;97236.66;5053419;28;20079;-61
2023/02/12 00:28:10;;;;;;;30.38;14.15;;;;;;;-4.43;58.12;97236.81;5053501;28;20479;-60
2023/02/12 00:30:37;;;;;;;30.23;12.60;;;;;;;-4.37;58.23;97228.50;5053391;28;20053;-61
2023/02/12 00:33:05;;;;;;;39.70;13.48;;;;;;;-4.33;58.59;97238.84;5053267;28;20049;-63
2023/02/12 00:35:32;;;;;;;33.58;15.60;;;;;;;-4.33;58.59;97238.84;5053244;28;20111;-62
2023/02/12 00:37:59;;;;;;;25.10;11.50;;;;;;;-4.33;58.99;97232.88;5053511;28;20060;-61
2023/02/12 00:40:28;;;;;;;22.85;10.80;;;;;;;-4.29;59.67;97234.72;5053235;28;20128;-64
2023/02/12 00:42:55;;;;;;;20.20;8.63;;;;;;;-4.31;59.40;97232.13;5053300;28;20087;-61
2023/02/12 00:45:22;;;;;;;18.80;9.27;;;;;;;-4.31;59.25;97233.78;5053247;28;20049;-64
2023/02/12 00:47:50;;;;;;;19.60;9.13;;;;;;;-4.23;58.41;97227.25;5053324;28;20077;-62
2023/02/12 00:50:18;;;;;;;30.42;13.18;;;;;;;-4.26;58.07;97232.25;5053147;28;20049;-63
2023/02/12 00:52:45;;;;;;;19.67;9.68;;;;;;;-4.15;60.20;97219.81;5053086;28;20487;-61
2023/02/12 00:55:12;;;;;;;15.45;8.35;;;;;;;-4.11;60.78;97226.75;5053056;28;20516;-61
2023/02/12 00:57:41;;;;;;;10.63;6.70;;;;;;;-4.09;59.17;97225.09;5053064;28;20055;-61
2023/02/12 01:00:09;;;;;;;15.90;7.03;;;;;;;-4.08;57.64;97224.31;5053096;28;20056;-63
2023/02/12 01:02:37;;;;;;;18.50;8.90;;;;;;;-4.16;58.07;97223.19;5052498;28;20049;-63
2023/02/12 01:05:05;;;;;;;21.13;9.05;;;;;;;-4.10;59.20;97225.94;5053000;28;20075;-60
2023/02/12 01:07:32;;;;;;;15.13;7.18;;;;;;;-4.14;58.12;97223.22;5053033;28;20045;-63
2023/02/12 01:09:59;;;;;;;14.57;8.35;;;;;;;-4.04;58.64;97229.50;5053037;28;20053;-60
2023/02/12 01:12:26;;;;;;;15.93;8.02;;;;;;;-3.98;58.79;97227.13;5052888;28;20148;-62
2023/02/12 01:14:55;;;;;;;16.48;8.90;;;;;;;-3.90;58.14;97222.25;5052917;28;20171;-63
2023/02/12 01:17:22;;;;;;;15.75;8.18;;;;;;;-3.81;57.10;97218.28;5052887;28;20084;-64
2023/02/12 01:19:49;;;;;;;16.23;9.10;;;;;;;-3.75;58.13;97216.72;5053017;28;20052;-63
2023/02/12 01:22:17;;;;;;;18.30;8.55;;;;;;;-3.71;58.69;97210.88;5052861;28;20045;-61
2023/02/12 01:24:44;;;;;;;17.02;8.38;;;;;;;-3.70;59.07;97203.25;5052838;28;20049;-63
2023/02/12 01:27:11;;;;;;;21.70;9.10;;;;;;;-3.66;58.86;97200.78;5052653;28;20483;-61
2023/02/12 01:29:39;;;;;;;16.50;8.38;;;;;;;-3.65;58.12;97203.38;5052873;28;20073;-63
2023/02/12 01:32:07;;;;;;;18.95;8.73;;;;;;;-3.65;58.81;97195.69;5052728;28;20383;-63
2023/02/12 01:34:34;;;;;;;15.73;7.70;;;;;;;-3.61;58.98;97194.13;5052789;28;20059;-62
2023/02/12 01:37:02;;;;;;;15.32;7.05;;;;;;;-3.61;59.00;97191.56;5052673;28;20045;-64
2023/02/12 01:39:29;;;;;;;18.95;8.13;;;;;;;-3.74;58.60;97191.19;5052661;28;20486;-63
2023/02/12 01:41:57;;;;;;;19.30;8.52;;;;;;;-3.79;57.98;97199.56;5052641;28;20049;-61
2023/02/12 01:44:28;;;;;;;22.00;9.65;;;;;;;-3.75;56.51;97198.81;5052614;28;20446;-60
2023/02/12 01:46:57;;;;;;;25.20;9.98;;;;;;;-3.76;57.44;97195.41;5052629;28;20136;-60
2023/02/12 01:49:32;;;;;;;24.33;9.15;;;;;;;-3.72;57.57;97202.34;5052642;28;20049;-63
2023/02/12 01:52:05;;;;;;;13.82;8.02;;;;;;;-3.73;58.30;97199.75;5052607;28;20562;-63
2023/02/12 01:54:35;;;;;;;23.30;8.60;;;;;;;-3.74;58.66;97191.19;5052503;28;20053;-62
2023/02/12 01:57:04;;;;;;;;;;;;;;;-3.84;58.55;97190.06;5052993;28;20045;-61
2023/02/12 01:59:32;;;;;;;14.85;7.90;;;;;;;-3.90;57.85;97195.00;5052499;28;19920;-62
2023/02/12 02:02:00;;;;;;;9.75;5.82;;;;;;;-3.99;58.54;97187.94;5052561;28;20049;-65
2023/02/12 02:04:34;;;;;;;16.45;6.70;;;;;;;-4.15;59.23;97195.94;5052390;28;20049;-62
2023/02/12 02:07:03;;;;;;;11.60;5.88;;;;;;;-4.19;59.41;97198.41;5053216;28;20049;-62
2023/02/12 02:09:33;;;;;;;9.27;4.65;;;;;;;-4.16;57.98;97184.84;5056175;28;20076;-65
2023/02/12 02:14:46;;;;;;;8.52;5.00;;;;;;;-4.28;57.51;97176.81;5055785;28;20134;-63
2023/02/12 02:17:31;;;;;;;9.85;5.10;;;;;;;-4.26;58.21;97196.47;5055934;28;20128;-63
2023/02/12 02:20:35;;;;;;;13.45;6.20;;;;;;;-4.22;59.07;97187.19;5056016;28;20064;-63
2023/02/12 02:23:23;;;;;;;10.10;5.72;;;;;;;-4.18;58.17;97189.06;5055844;28;20059;-65
2023/02/12 02:26:30;;;;;;;11.18;6.18;;;;;;;-4.20;58.29;97176.22;5055917;28;20049;-62
2023/02/12 02:29:20;;;;;;;18.65;7.85;;;;;;;-4.18;57.47;97184.78;5043202;28;20479;-65
2023/02/12 02:31:58;;;;;;;15.13;6.68;;;;;;;-4.12;56.69;97179.00;5055801;28;20111;-59
2023/02/12 02:34:34;;;;;;;13.43;6.85;;;;;;;-4.07;57.48;97180.03;5055667;28;20084;-64
2023/02/12 02:37:11;;;;;;;13.25;7.20;;;;;;;-4.05;57.82;97172.41;5055569;28;20120;-64
2023/02/12 02:39:43;;;;;;;10.35;5.15;;;;;;;-3.96;58.84;97174.34;5055416;28;20056;-64
2023/02/12 02:42:16;;;;;;;10.07;4.85;;;;;;;-3.99;58.82;97185.38;5055571;28;20091;-60
2023/02/12 02:44:49;;;;;;;11.32;5.40;;;;;;;-3.89;59.74;97175.41;5055574;28;20052;-65
2023/02/12 02:47:21;;;;;;;10.75;4.85;;;;;;;-3.96;59.46;97176.91;5055381;28;20045;-65
2023/02/12 02:49:54;;;;;;;11.23;5.10;;;;;;;-3.94;59.66;97171.00;5055612;28;20381;-65
2023/02/12 02:52:28;;;;;;;11.18;5.07;;;;;;;-3.91;60.43;97180.50;5055288;28;20049;-64
2023/02/12 02:55:00;;;;;;;11.80;5.70;;;;;;;-3.96;60.39;97177.78;5055209;28;20070;-65
2023/02/12 02:57:31;;;;;;;8.85;5.03;;;;;;;-3.94;60.09;97178.69;5055127;28;20406;-64
2023/02/12 03:00:04;;;;;;;8.25;5.03;;;;;;;-3.89;60.60;97173.72;5055326;28;20049;-61
2023/02/12 03:02:37;;;;;;;10.40;4.80;;;;;;;-3.82;59.43;97172.22;5055124;28;20049;-63
2023/02/12 03:05:09;;;;;;;9.93;5.75;;;;;;;-3.84;56.40;97173.84;5054961;28;20056;-64
2023/02/12 03:07:42;;;;;;;8.27;4.60;;;;;;;-3.81;55.79;97174.81;5055036;28;20049;-62
2023/02/12 03:10:17;;;;;;;9.25;5.03;;;;;;;-3.90;55.81;97166.88;5054965;28;20478;-64
2023/02/12 03:12:50;;;;;;;11.10;6.15;;;;;;;-3.79;55.64;97179.09;5054935;28;20099;-65
2023/02/12 03:15:21;;;;;;;7.57;4.53;;;;;;;-3.68;56.22;97180.25;5054901;28;20128;-63
2023/02/12 03:17:50;;;;;;;8.15;4.82;;;;;;;-3.61;57.65;97182.16;5054629;28;20052;-62
2023/02/12 03:20:21;;;;;;;10.52;5.00;;;;;;;-3.51;58.24;97179.88;5054026;28;20115;-63
2023/02/12 03:22:53;;;;;;;8.38;4.55;;;;;;;-3.43;58.76;97169.03;5054652;28;20102;-62
2023/02/12 03:25:25;;;;;;;8.57;4.95;;;;;;;-3.40;58.46;97165.72;5054607;28;20553;-63
2023/02/12 03:27:59;;;;;;;10.75;5.03;;;;;;;-3.37;57.27;97160.66;5054616;28;20415;-64
2023/02/12 03:30:37;;;;;;;10.32;4.28;;;;;;;-3.31;57.50;97157.41;5054549;28;20055;-65
2023/02/12 03:33:16;;;;;;;10.50;4.95;;;;;;;-3.27;58.74;97155.78;5054269;28;20131;-63
2023/02/12 03:35:52;;;;;;;7.30;4.43;;;;;;;-3.24;57.98;97164.41;5054372;28;20132;-61
2023/02/12 03:38:28;;;;;;;7.35;4.82;;;;;;;-3.18;58.00;97153.47;5054493;28;20141;-62
2023/02/12 03:41:02;;;;;;;7.38;4.50;;;;;;;-3.10;58.03;97153.69;5054438;28;20098;-65
2023/02/12 03:43:35;;;;;;;7.15;4.15;;;;;;;-3.15;59.07;97156.13;5054571;28;20124;-64
2023/02/12 03:46:10;;;;;;;8.32;4.35;;;;;;;-3.10;59.58;97151.97;5054312;28;20045;-63
2023/02/12 03:48:46;;;;;;;6.25;4.43;;;;;;;-3.04;60.34;97166.66;5054459;28;20045;-65
2023/02/12 03:51:22;;;;;;;7.20;4.68;;;;;;;-3.06;60.12;97169.16;5054093;28;20049;-65
2023/02/12 03:53:49;;;;;;;11.88;5.10;;;;;;;-3.06;59.51;97170.84;5054038;28;20564;-65
2023/02/12 03:56:27;;;;;;;11.93;5.57;;;;;;;-3.03;59.13;97170.06;5054058;28;20131;-65
2023/02/12 03:58:54;;;;;;;11.02;5.65;;;;;;;-3.01;57.90;97168.41;5053975;28;20045;-64
2023/02/12 04:01:22;;;;;;;8.57;5.05;;;;;;;-3.08;57.91;97163.13;5054013;28;20084;-62
2023/02/12 04:03:50;;;;;;;11.63;5.70;;;;;;;-3.06;57.72;97166.59;5054042;28;20129;-64
2023/02/12 04:06:21;;;;;;;10.05;5.10;;;;;;;-3.08;57.16;97173.38;5053924;28;20051;-63
2023/02/12 04:08:48;;;;;;;9.95;5.70;;;;;;;-3.12;57.03;97169.00;5053905;28;20041;-62
2023/02/12 04:11:24;;;;;;;13.05;6.70;;;;;;;-3.08;56.87;97169.94;5053811;28;20052;-64
2023/02/12 04:14:07;;;;;;;10.55;6.13;;;;;;;-3.09;56.97;97170.75;5053513;28;20140;-65
2023/02/12 04:16:40;;;;;;;9.52;5.88;;;;;;;-3.10;57.15;97177.56;5053705;28;20052;-64
2023/02/12 04:19:13;;;;;;;12.10;5.70;;;;;;;-2.99;57.61;97189.78;5053702;28;20105;-64
2023/02/12 04:21:53;;;;;;;9.90;4.93;;;;;;;-2.94;56.85;97178.84;5053629;28;20059;-64
2023/02/12 04:24:28;;;;;;;;;;;;;;;-2.95;56.71;97184.78;5054234;28;20045;-62
2023/02/12 04:27:01;;;;;;;14.80;7.78;;;;;;;-2.95;57.00;97192.47;5053453;28;19920;-64
2023/02/12 04:29:35;;;;;;;22.73;8.95;;;;;;;-2.90;56.93;97186.59;5053158;28;20128;-65
2023/02/12 04:32:10;;;;;;;25.13;10.80;;;;;;;-2.90;57.27;97187.47;5053320;28;20099;-63
2023/02/12 04:34:48;;;;;;;13.23;6.82;;;;;;;-2.81;58.52;97191.94;5053286;28;20529;-63
2023/02/12 04:37:18;;;;;;;22.17;6.97;;;;;;;-2.74;56.40;97203.25;5053447;28;20049;-64
2023/02/12 04:39:46;;;;;;;;;;;;;;;-2.70;56.42;97202.47;5053711;28;20049;-64
2023/02/12 04:42:13;;;;;;;12.75;7.05;;;;;;;-2.72;56.80;97197.31;5053487;28;20008;-65
2023/02/12 04:44:42;;;;;;;11.85;6.00;;;;;;;-2.76;57.23;97190.41;5053273;28;20135;-63
2023/02/12 04:47:11;;;;;;;10.40;4.77;;;;;;;-2.68;58.34;97193.16;5053302;28;20053;-63
2023/02/12 04:49:40;;;;;;;10.38;5.53;;;;;;;-2.64;58.83;97192.41;5053361;28;20051;-63
2023/02/12 04:52:07;;;;;;;12.70;6.20;;;;;;;-2.70;56.58;97180.31;5053179;28;20414;-63
2023/02/12 04:54:34;;;;;;;12.68;5.13;;;;;;;-2.61;57.05;97184.78;5052955;28;20136;-62
2023/02/12 04:57:02;;;;;;;10.07;5.55;;;;;;;-2.57;57.27;97178.03;5053041;28;20081;-64
2023/02/12 04:59:29;;;;;;;9.77;5.47;;;;;;;-2.49;57.65;97191.03;5052926;28;20095;-63
2023/02/12 05:01:56;;;;;;;15.73;8.00;;;;;;;-2.58;57.09;97184.88;5053121;28;20069;-63
2023/02/12 05:04:23;;;;;;;21.58;9.43;;;;;;;-2.57;57.46;97186.59;5052922;28;20083;-62
2023/02/12 05:06:52;;;;;;;11.63;6.45;;;;;;;-2.44;57.97;97192.03;5053007;28;20051;-62
2023/02/12 05:09:20;;;;;;;11.85;5.82;;;;;;;-2.35;57.84;97192.22;5052861;28;20140;-62
2023/02/12 05:11:48;;;;;;;10.52;5.80;;;;;;;-2.35;56.63;97199.91;5052806;28;20092;-65
2023/02/12 05:14:15;;;;;;;9.75;4.90;;;;;;;-2.28;56.49;97199.22;5052484;28;20049;-64
2023/02/12 05:16:42;;;;;;;13.52;5.57;;;;;;;-2.26;55.69;97208.66;5052814;28;20072;-63
2023/02/12 05:19:10;;;;;;;10.30;5.03;;;;;;;-2.24;54.84;97209.53;5052806;28;20132;-62
2023/02/12 05:21:37;;;;;;;10.18;5.32;;;;;;;-2.19;53.18;97213.97;5052826;28;20049;-62
2023/02/12 05:24:06;;;;;;;9.88;5.63;;;;;;;-2.14;53.66;97214.06;5052699;28;20049;-64
2023/02/12 05:26:34;;;;;;;13.50;6.57;;;;;;;-2.07;54.28;97220.22;5052741;28;20045;-63
2023/02/12 05:29:02;;;;;;;11.23;6.75;;;;;;;-2.07;54.56;97223.66;5052795;28;20041;-62
2023/02/12 05:31:29;;;;;;;8.95;5.45;;;;;;;-2.13;56.01;97235.44;5052847;28;20049;-63
2023/02/12 05:33:56;;;;;;;10.77;5.30;;;;;;;-2.16;57.20;97237.09;5052698;28;20487;-62
2023/02/12 05:36:24;;;;;;;11.63;5.88;;;;;;;-2.18;57.02;97253.28;5052742;28;20399;-63
2023/02/12 05:38:52;;;;;;;9.75;5.38;;;;;;;-2.29;57.21;97256.44;5052656;28;20052;-64
2023/02/12 05:41:24;;;;;;;16.48;6.15;;;;;;;-2.39;56.52;97248.50;5052741;28;20048;-64
2023/02/12 05:43:51;;;;;;;11.40;5.82;;;;;;;-2.42;56.17;97262.09;5056778;28;20049;-64
2023/02/12 05:46:20;;;;;;;9.95;5.60;;;;;;;-2.36;55.70;97262.25;5056625;28;20055;-62
2023/02/12 05:48:48;;;;;;;14.80;6.15;;;;;;;-2.23;55.31;97271.09;5056467;28;20053;-62
2023/02/12 05:51:18;;;;;;;12.15;6.32;;;;;;;-2.18;56.31;97269.53;5056423;28;20585;-65
2023/02/12 05:53:46;;;;;;;13.38;7.10;;;;;;;-2.13;56.24;97264.53;5056379;28;20049;-63
2023/02/12 05:56:15;;;;;;;13.88;8.30;;;;;;;-2.08;56.08;97259.50;5056318;28;20052;-65
2023/02/12 05:58:47;;;;;;;9.55;6.22;;;;;;;-2.12;56.66;97263.69;5056321;28;20098;-64
2023/02/12 06:01:20;;;;;;;13.63;6.40;;;;;;;-2.16;58.05;97265.28;5056201;28;20049;-63
2023/02/12 06:03:47;;;;;;;13.25;6.22;;;;;;;-2.09;57.36;97270.56;5056176;28;20049;-64
2023/02/12 06:06:15;;;;;;;9.52;5.65;;;;;;;-1.99;57.93;97269.13;5056154;28;20049;-64
2023/02/12 06:08:42;;;;;;;13.32;6.75;;;;;;;-1.97;57.86;97278.56;5056145;28;20068;-64
2023/02/12 06:11:15;;;;;;;14.23;7.82;;;;;;;-1.88;57.64;97280.47;5055998;28;20088;-63
2023/02/12 06:13:44;;;;;;;12.07;6.35;;;;;;;-1.77;57.80;97278.16;5055686;28;20102;-62
2023/02/12 06:16:18;;;;;;;13.00;6.90;;;;;;;-1.85;57.38;97274.53;5055990;28;20057;-65
2023/02/12 06:18:47;;;;;;;10.38;5.90;;;;;;;-1.86;56.21;97281.41;5055818;28;20049;-62
2023/02/12 06:21:15;;;;;;;11.20;5.40;;;;;;;-1.87;56.64;97281.38;5055789;28;20112;-64
2023/02/12 06:23:42;;;;;;;10.88;5.85;;;;;;;-1.77;57.92;97278.16;5056084;28;20053;-64
2023/02/12 06:26:10;;;;;;;13.75;6.10;;;;;;;-1.70;57.57;97284.28;5055748;28;20076;-63
2023/02/12 06:28:38;;;;;;;10.55;5.60;;;;;;;-1.65;57.33;97280.16;5055694;28;20045;-62
2023/02/12 06:31:21;;;;;;;15.93;8.80;;;;;;;-1.57;57.32;97283.75;5055771;28;20148;-64
2023/02/12 06:33:50;;;;;;;17.45;8.23;;;;;;;-1.51;55.95;97283.00;5055528;28;20060;-62
2023/02/12 06:36:17;;;;;;;12.52;7.20;;;;;;;-1.38;55.23;97288.41;5055623;28;20049;-64
2023/02/12 06:38:45;;;;;;;12.50;7.10;;;;;;;-1.30;54.44;97292.88;5055672;28;20049;-63
2023/02/12 06:41:15;;;;;;;14.65;8.75;;;;;;;-1.20;51.79;97290.50;5055468;28;20053;-65
2023/02/12 06:43:44;;;;;;;8.40;5.60;;;;;;;-1.03;53.44;97298.53;5055513;28;20083;-62
2023/02/12 06:46:14;;;;;;;9.52;5.53;;;;;;;-0.92;52.35;97306.47;5055665;28;20052;-62
2023/02/12 06:48:42;;;;;;;9.27;5.88;;;;;;;-0.84;51.90;97299.75;5055296;28;20103;-63
2023/02/12 06:51:12;;;;;;;9.63;6.32;;;;;;;-0.78;50.51;97309.31;5055325;28;20552;-64
2023/02/12 06:53:39;;;;;;;10.53;6.30;;;;;;;-0.69;50.85;97308.63;5055205;28;20128;-63
2023/02/12 06:56:10;;;;;;;15.55;6.18;;;;;;;-0.61;52.74;97303.63;5055196;28;20045;-65
2023/02/12 06:58:38;;;;;;;;;;;;;;;-0.48;54.00;97310.72;5055625;28;20163;-63
2023/02/12 07:01:16;;;;;;;10.02;5.32;;;;;;;-0.39;54.26;97304.91;5055017;28;19921;-64
2023/02/12 07:03:48;;;;;;;8.90;5.57;;;;;;;-0.26;53.52;97313.69;5055052;28;20049;-64
2023/02/12 07:06:16;;;;;;;12.57;6.55;;;;;;;-0.24;52.29;97319.69;5054949;28;20049;-62
2023/02/12 07:08:44;;;;;;;10.25;6.53;;;;;;;-0.30;51.87;97333.31;5054876;28;20053;-62
2023/02/12 07:11:12;;;;;;;16.33;7.90;;;;;;;-0.36;52.12;97319.50;5054902;28;20045;-62
2023/02/12 07:13:42;;;;;;;22.88;13.18;;;;;;;-0.30;52.43;97330.75;5054692;28;20048;-64
2023/02/12 07:16:16;;;;;;;38.85;22.95;;;;;;;-0.20;52.12;97324.09;5054875;28;20051;-63
2023/02/12 07:18:45;;;;;;;28.98;17.35;;;;;;;-0.14;52.34;97331.03;5054823;28;20044;-63
2023/02/12 07:21:18;;;;;;;28.25;14.88;;;;;;;-0.02;52.48;97331.25;5054711;28;20056;-63
2023/02/12 07:23:48;;;;;;;18.83;10.98;;;;;;;0.11;51.76;97331.44;5054819;28;20063;-63
2023/02/12 07:26:16;;;;;;;22.13;11.90;;;;;;;0.26;50.71;97328.25;5054637;28;20098;-62
2023/02/12 07:28:45;;;;;;;19.15;10.80;;;;;;;0.38;49.91;97314.69;5054802;28;20061;-64
2023/02/12 07:31:19;;;;;;;18.60;9.48;;;;;;;0.56;48.40;97315.81;5054731;28;20407;-64
2023/02/12 07:33:47;;;;;;;16.15;9.32;;;;;;;0.69;48.46;97320.28;5054483;28;20095;-64
2023/02/12 07:36:18;;;;;;;21.05;12.32;;;;;;;0.90;47.26;97318.84;5054364;28;20052;-64
2023/02/12 07:38:46;;;;;;;20.98;11.23;;;;;;;1.23;46.75;97324.38;5054421;28;20421;-63
2023/02/12 07:41:17;;;;;;;18.05;11.20;;;;;;;1.54;45.04;97318.72;5054349;28;20473;-65
2023/02/12 07:43:46;;;;;;;;;;;;;;;1.74;44.33;97314.63;5054676;28;20283;-65
2023/02/12 07:46:17;;;;;;;20.70;8.55;;;;;;;1.98;44.74;97320.84;5054264;28;19927;-62
2023/02/12 07:48:46;;;;;;;16.58;9.98;;;;;;;2.27;45.15;97320.25;5054332;28;20099;-65
2023/02/12 07:51:18;;;;;;;13.63;8.35;;;;;;;2.42;45.00;97325.50;5054407;28;20045;-64
2023/02/12 07:53:45;;;;;;;22.98;10.50;;;;;;;2.69;45.93;97327.41;5054104;28;20049;-63
2023/02/12 07:56:17;;;;;;;14.02;8.27;;;;;;;3.02;42.92;97320.69;5054100;28;20435;-64
2023/02/12 07:58:48;;;;;;;20.83;12.35;;;;;;;3.31;43.19;97324.22;5054007;28;20128;-65
2023/02/12 08:01:34;;;;;;;15.93;9.80;;;;;;;3.60;42.80;97320.88;5053951;28;20486;-64
2023/02/12 08:04:17;;;;;;;13.75;8.70;;;;;;;3.63;41.83;97326.06;5053830;28;20053;-64
2023/02/12 08:06:59;;;;;;;18.10;10.18;;;;;;;3.62;42.91;97326.06;5053776;28;20091;-64
2023/02/12 08:09:44;;;;;;;15.68;8.98;;;;;;;3.49;42.64;97307.91;5053791;28;20582;-64
2023/02/12 08:12:14;;;;;;;16.77;9.73;;;;;;;3.60;42.16;97333.81;5053898;28;20045;-64
2023/02/12 08:14:45;;;;;;;20.38;8.70;;;;;;;3.63;41.93;97332.94;5053456;28;20049;-65
2023/02/12 08:17:17;;;;;;;16.38;8.93;;;;;;;3.78;42.64;97339.88;5054047;28;20053;-63
2023/02/12 08:19:44;;;;;;;14.73;8.93;;;;;;;4.03;42.00;97337.31;5053650;28;20053;-64
2023/02/12 08:22:13;;;;;;;17.13;9.05;;;;;;;4.29;40.42;97333.91;5053608;28;20514;-63
2023/02/12 08:24:42;;;;;;;19.13;10.02;;;;;;;4.64;40.81;97332.16;5053518;28;20049;-63
2023/02/12 08:27:10;;;;;;;15.57;9.38;;;;;;;4.95;40.17;97332.06;5053388;28;20045;-65
2023/02/12 08:29:46;;;;;;;15.35;9.10;;;;;;;5.03;39.29;97338.09;5053737;28;20049;-63
2023/02/12 08:32:15;;;;;;;14.80;8.52;;;;;;;4.88;39.35;97335.56;5053469;28;20056;-64
2023/02/12 08:34:45;;;;;;;12.98;8.40;;;;;;;4.89;39.44;97337.28;5053391;28;20056;-64
2023/02/12 08:37:13;;;;;;;15.43;9.30;;;;;;;5.00;39.09;97339.84;5053366;28;20460;-63
2023/02/12 08:39:42;;;;;;;19.95;10.60;;;;;;;5.20;39.47;97352.75;5053524;28;20128;-64
2023/02/12 08:42:15;;;;;;;16.77;10.43;;;;;;;5.26;38.84;97354.44;5053291;28;20837;-64
2023/02/12 08:44:45;;;;;;;16.02;9.20;;;;;;;5.24;38.43;97351.00;5053144;28;20045;-63
2023/02/12 08:47:14;;;;;;;13.40;8.27;;;;;;;5.38;38.54;97361.31;5053219;28;20457;-61
2023/02/12 08:49:48;;;;;;;14.77;8.93;;;;;;;5.41;38.08;97363.91;5053064;28;20506;-64
2023/02/12 08:52:18;;;;;;;25.83;12.45;;;;;;;5.46;39.30;97367.34;5053249;28;20051;-63
2023/02/12 08:54:52;;;;;;;18.35;10.13;;;;;;;5.70;39.10;97370.69;5053156;28;20132;-64
2023/02/12 08:57:20;;;;;;;15.60;9.35;;;;;;;5.90;37.61;97373.19;5053084;28;20136;-63
2023/02/12 08:59:51;;;;;;;18.67;9.90;;;;;;;6.07;38.10;97365.31;5053199;28;20049;-63
2023/02/12 09:02:19;;;;;;;17.13;9.75;;;;;;;6.29;37.61;97379.91;5053027;28;20572;-63
2023/02/12 09:04:51;;;;;;;17.35;10.90;;;;;;;6.37;36.54;97390.22;5053091;28;20045;-62
2023/02/12 09:07:24;;;;;;;16.90;10.57;;;;;;;6.23;37.60;97380.78;5053183;28;20053;-63
2023/02/12 09:09:53;;;;;;;17.23;9.88;;;;;;;6.12;37.51;97380.00;5052921;28;20128;-63
2023/02/12 09:12:21;;;;;;;17.17;10.63;;;;;;;6.08;38.07;97386.94;5052917;28;20048;-63
2023/02/12 09:14:53;;;;;;;23.30;12.13;;;;;;;5.85;37.77;97376.69;5052834;28;20045;-62
2023/02/12 09:17:26;;;;;;;23.52;12.20;;;;;;;5.72;38.83;97389.72;5054692;28;20495;-63
2023/02/12 09:19:56;;;;;;;21.00;12.30;;;;;;;5.66;38.66;97388.00;5057000;28;20045;-63
2023/02/12 09:22:23;;;;;;;16.38;10.20;;;;;;;5.75;38.07;97391.47;5056887;28;20045;-63
2023/02/12 09:24:51;;;;;;;17.95;10.75;;;;;;;5.67;38.26;97394.97;5056894;28;20089;-63
2023/02/12 09:27:18;;;;;;;17.45;9.18;;;;;;;5.55;38.31;97397.59;5056991;28;20080;-63
2023/02/12 09:29:46;;;;;;;19.90;10.98;;;;;;;5.39;39.13;97399.41;5056835;28;20092;-63
2023/02/12 09:32:13;;;;;;;17.77;10.13;;;;;;;5.39;38.42;97402.00;5056853;28;20458;-62
2023/02/12 09:34:41;;;;;;;30.60;16.88;;;;;;;5.40;38.97;97403.72;5056733;28;20443;-62
2023/02/12 09:37:10;;;;;;;22.55;13.43;;;;;;;5.51;39.43;97396.72;5056812;28;20470;-62
2023/02/12 09:39:37;;;;;;;19.13;10.65;;;;;;;5.74;38.94;97393.19;5056624;28;20049;-63
2023/02/12 09:42:31;;;;;;;16.45;10.20;;;;;;;5.94;38.21;97402.59;5056646;28;20044;-63
2023/02/12 09:45:07;;;;;;;15.38;10.13;;;;;;;6.01;38.40;97395.63;5056415;28;20396;-63
2023/02/12 09:47:47;;;;;;;15.40;9.93;;;;;;;6.15;38.60;97404.25;5056547;28;20048;-63
2023/02/12 09:50:33;;;;;;;12.83;8.17;;;;;;;6.21;37.77;97399.88;5056641;28;20459;-63
2023/02/12 09:53:05;;;;;;;21.52;10.82;;;;;;;6.06;37.91;97402.53;5056401;28;20153;-63
2023/02/12 09:55:36;;;;;;;16.88;9.57;;;;;;;6.02;37.97;97400.81;5056309;28;20053;-62
2023/02/12 09:58:13;;;;;;;19.85;10.52;;;;;;;5.94;37.86;97398.25;5056402;28;20051;-63
2023/02/12 10:00:51;;;;;;;15.75;9.05;;;;;;;5.89;38.47;97406.94;5056266;28;20049;-63
2023/02/12 10:03:35;;;;;;;18.45;9.98;;;;;;;5.86;37.95;97404.34;5056455;28;20052;-63
2023/02/12 10:06:08;;;;;;;19.25;10.00;;;;;;;5.89;38.55;97396.56;5056048;28;20059;-63
2023/02/12 10:09:03;;;;;;;17.10;9.52;;;;;;;5.93;38.36;97398.28;5056086;28;20053;-63
2023/02/12 10:12:07;;;;;;;13.23;8.65;;;;;;;5.86;37.46;97394.84;5055576;28;20125;-63
2023/02/12 10:15:12;;;;;;;13.80;8.43;;;;;;;5.91;37.26;97394.81;5055792;28;20045;-63
2023/02/12 10:17:44;;;;;;;14.70;8.63;;;;;;;5.78;37.01;97401.81;5046814;28;20084;-62
2023/02/12 10:20:48;;;;;;;13.73;8.13;;;;;;;5.72;38.20;97397.50;5055988;28;20041;-63
2023/02/12 10:23:33;;;;;;;15.50;8.77;;;;;;;5.81;37.48;97399.22;5054481;28;20049;-63
2023/02/12 10:26:14;;;;;;;12.32;7.90;;;;;;;5.88;37.26;97398.31;5055947;28;20053;-63
2023/02/12 10:28:44;;;;;;;15.20;8.60;;;;;;;6.02;37.22;97399.97;5055225;28;20465;-63
2023/02/12 10:31:19;;;;;;;15.93;7.78;;;;;;;6.04;37.14;97399.09;5055793;28;20048;-62
2023/02/12 10:34:02;;;;;;;15.38;8.05;;;;;;;6.03;36.74;97409.47;5055968;28;20060;-62
2023/02/12 10:36:41;;;;;;;20.15;10.00;;;;;;;5.97;37.23;97409.50;5055605;28;20136;-63
2023/02/12 10:39:20;;;;;;;17.08;8.73;;;;;;;6.08;37.10;97410.31;5055643;28;20053;-63
2023/02/12 10:41:55;;;;;;;17.33;9.02;;;;;;;6.12;36.86;97417.25;5055489;28;20499;-62
2023/02/12 10:44:24;;;;;;;15.00;7.45;;;;;;;6.05;36.67;97413.81;5055510;28;20410;-63
2023/02/12 10:46:51;;;;;;;12.13;7.65;;;;;;;6.10;36.44;97415.50;5055307;28;20076;-63
2023/02/12 10:49:21;;;;;;;13.15;7.72;;;;;;;6.13;36.12;97413.78;5055353;28;20080;-62
2023/02/12 10:52:02;;;;;;;12.80;7.95;;;;;;;6.25;36.50;97411.97;5055573;28;20110;-63
2023/02/12 10:54:41;;;;;;;12.52;7.55;;;;;;;6.15;35.83;97417.25;5055312;28;20080;-63
2023/02/12 10:57:16;;;;;;;14.07;8.05;;;;;;;5.99;36.20;97433.75;5055056;28;20136;-62
2023/02/12 10:59:46;;;;;;;11.18;7.95;;;;;;;5.98;36.36;97435.47;5055268;28;20503;-63
2023/02/12 11:02:32;;;;;;;17.35;7.40;;;;;;;6.01;36.79;97432.88;5055212;28;20049;-63
2023/02/12 11:05:16;;;;;;;13.38;8.07;;;;;;;6.01;37.07;97434.59;5055246;28;20049;-63
2023/02/12 11:07:50;;;;;;;12.13;7.85;;;;;;;6.04;36.60;97430.28;5055044;28;20048;-63
2023/02/12 11:10:27;;;;;;;14.00;7.25;;;;;;;6.11;36.20;97430.25;5054971;28;20055;-63
2023/02/12 11:12:59;;;;;;;11.98;7.15;;;;;;;6.04;36.33;97438.06;5055120;28;20136;-62
2023/02/12 11:15:31;;;;;;;12.00;7.57;;;;;;;6.06;35.85;97435.47;5053780;28;20091;-63
2023/02/12 11:18:01;;;;;;;11.15;6.72;;;;;;;6.03;35.71;97441.53;5054850;28;20049;-63
2023/02/12 11:20:37;;;;;;;10.73;6.85;;;;;;;5.91;35.73;97434.66;5054864;28;20052;-63
2023/02/12 11:23:08;;;;;;;14.98;8.02;;;;;;;5.72;36.81;97438.22;5054789;28;20055;-64
2023/02/12 11:25:38;;;;;;;12.13;7.55;;;;;;;5.81;35.97;97444.22;5053556;28;20056;-62
2023/02/12 11:28:16;;;;;;;10.07;6.13;;;;;;;5.88;35.79;97439.88;5054599;28;20526;-62
2023/02/12 11:30:52;;;;;;;12.50;7.70;;;;;;;5.90;35.80;97440.69;5054604;28;20049;-63
2023/02/12 11:33:29;;;;;;;11.60;7.57;;;;;;;6.01;35.71;97444.97;5054396;28;20509;-62
2023/02/12 11:35:59;;;;;;;14.02;7.85;;;;;;;6.09;36.01;97440.66;5054476;28;20053;-63
2023/02/12 11:38:36;;;;;;;11.52;7.10;;;;;;;6.09;35.04;97448.44;5054484;28;20490;-63
2023/02/12 11:41:25;;;;;;;13.60;6.88;;;;;;;6.05;35.11;97437.19;5053688;28;20041;-63
2023/02/12 11:43:54;;;;;;;11.70;7.35;;;;;;;6.07;34.98;97440.66;5054393;28;20491;-63
2023/02/12 11:46:24;;;;;;;12.60;7.35;;;;;;;6.09;35.33;97444.97;5054367;28;20061;-62
2023/02/12 11:48:52;;;;;;;11.87;7.77;;;;;;;6.13;34.62;97449.28;5054250;28;20045;-62
2023/02/12 11:51:24;;;;;;;14.98;7.95;;;;;;;6.03;34.53;97451.03;5054223;28;20083;-62
2023/02/12 11:53:55;;;;;;;11.60;7.25;;;;;;;5.84;34.92;97445.06;5054237;28;20049;-62